This is the latest recevied weather packets stored in our database for station/object R8AHC-W1. If no packets are shown the sender has not sent any weather packets the latest 10 day(s).
| Time | Temp. | Humidity | Pressure | Rain* | Wind** | Luminosity | Snow |
|---|---|---|---|---|---|---|---|
| 1778031422 | 6.67° C | 87% | 1015 hPa | - | 0.89 m/s, 120° | - | - |
| 1778024222 | 6.67° C | 87% | 1015 hPa | - | 0.89 m/s, 230° | - | - |
| 1778013421 | 8.89° C | 76% | 1015 hPa | - | 1.79 m/s, 160° | - | - |
| 1778009822 | 8.33° C | 76% | 1015 hPa | - | 1.79 m/s, 150° | - | - |
| 1777999022 | 12.22° C | 58% | 1015 hPa | - | 4.02 m/s, 190° | - | - |
| 1777973821 | 18.33° C | 39% | 1013 hPa | - | 1.79 m/s, 290° | - | - |
| 1777970222 | 17.78° C | 39% | 1013 hPa | - | 3.13 m/s, 40° | - | - |
| 1777966622 | 17.22° C | 39% | 1012 hPa | - | 1.79 m/s, 60° | - | - |
| 1777959422 | 15.56° C | 47% | 1013 hPa | - | 3.13 m/s, 30° | - | - |
| 1777952222 | 11.11° C | 87% | 1013 hPa | - | 3.13 m/s, 350° | - | - |
| 1777948622 | 10.56° C | 87% | 1012 hPa | - | 0.89 m/s, 340° | - | - |
| 1777941423 | 9.44° C | 100% | 1011 hPa | - | 3.13 m/s, 300° | - | - |
| 1777937822 | 8.89° C | 100% | 1011 hPa | - | 3.13 m/s, 260° | - | - |
| 1777934222 | 8.33° C | 100% | 1011 hPa | - | 3.13 m/s, 310° | - | - |
| 1777927022 | 9.44° C | 100% | 1010 hPa | - | 1.79 m/s, 270° | - | - |
| 1777919822 | 11.67° C | 93% | 1011 hPa | - | 1.79 m/s, 200° | - | - |
| 1777916222 | 11.11° C | 93% | 1011 hPa | - | 3.13 m/s, 250° | - | - |
| 1777912622 | 10.56° C | 93% | 1012 hPa | - | 3.13 m/s, 260° | - | - |
| 1777901822 | 12.22° C | 76% | 1011 hPa | - | 5.81 m/s, 210° | - | - |
| 1777898222 | 16.11° C | 58% | 1010 hPa | - | 5.81 m/s, 200° | - | - |
| 1777894622 | 15.56° C | 58% | 1010 hPa | - | 4.02 m/s, 230° | - | - |
| 1777883822 | 14.44° C | 62% | 1011 hPa | - | 4.02 m/s, 230° | - | - |
| 1777876622 | 11.67° C | 100% | 1010 hPa | - | 8.94 m/s, 260° | - | - |
| 1777873034 | 11.11° C | 100% | 1011 hPa | - | 7.15 m/s, 260° | - | - |
| 1777869422 | 10.56° C | 100% | 1011 hPa | - | 3.13 m/s, 200° | - | - |
* Rain since midnight (hover to see other rain measurements)
** Current wind speed in m/s (hover to see current wind gust speed)